createdAt,value
2022-07-29T00:00:15.391Z,57.69
2022-07-29T00:01:19.189Z,57.76
2022-07-29T00:02:21.483Z,57.48
2022-07-29T00:03:23.338Z,57.23
2022-07-29T00:04:25.158Z,57.54
2022-07-29T00:05:27.093Z,57.81
2022-07-29T00:06:28.898Z,57.88
2022-07-29T00:07:30.756Z,58.28
2022-07-29T00:08:32.451Z,58.48
2022-07-29T00:09:51.047Z,58.53
2022-07-29T00:10:54.054Z,58.21
2022-07-29T00:11:59.657Z,58.29
2022-07-29T00:13:01.826Z,57.59
2022-07-29T00:14:03.707Z,57.88
2022-07-29T00:15:06.091Z,57.76
2022-07-29T00:16:07.839Z,58.40
2022-07-29T00:17:09.683Z,58.16
2022-07-29T00:18:11.415Z,58.48
2022-07-29T00:19:13.130Z,58.35
2022-07-29T00:20:15.083Z,59.00
2022-07-29T00:21:16.899Z,58.75
2022-07-29T00:22:18.722Z,58.55
2022-07-29T00:23:20.448Z,58.33
2022-07-29T00:24:22.311Z,58.60
2022-07-29T00:25:24.120Z,58.82
2022-07-29T00:26:26.343Z,59.35
2022-07-29T00:27:28.343Z,59.13
2022-07-29T00:28:30.071Z,59.58
2022-07-29T00:29:34.029Z,59.42
2022-07-29T00:30:36.505Z,59.29
2022-07-29T00:31:38.318Z,59.50
2022-07-29T00:32:40.408Z,59.75
2022-07-29T00:33:42.383Z,59.19
2022-07-29T00:35:02.596Z,59.67
2022-07-29T00:36:04.623Z,59.71
2022-07-29T00:37:06.400Z,59.81
2022-07-29T00:38:09.739Z,59.57
2022-07-29T00:39:11.482Z,59.32
2022-07-29T00:40:13.494Z,59.20
2022-07-29T00:41:15.354Z,59.51
2022-07-29T00:42:17.764Z,59.90
2022-07-29T00:43:19.482Z,60.01
2022-07-29T00:44:21.339Z,60.22
2022-07-29T00:45:23.350Z,60.14
2022-07-29T00:46:25.145Z,59.94
2022-07-29T00:47:26.922Z,59.79
2022-07-29T00:48:28.615Z,60.02
2022-07-29T00:49:30.391Z,60.13
2022-07-29T00:50:33.419Z,60.12
2022-07-29T00:51:39.432Z,60.56
2022-07-29T00:52:42.631Z,60.28
2022-07-29T00:53:45.169Z,60.84
2022-07-29T00:54:47.025Z,60.38
2022-07-29T00:55:48.867Z,60.37
2022-07-29T00:56:50.955Z,60.45
2022-07-29T00:57:53.778Z,61.12
2022-07-29T00:58:57.617Z,60.58
2022-07-29T00:59:59.443Z,60.49
2022-07-29T01:01:01.254Z,60.12
2022-07-29T01:02:04.552Z,60.99
2022-07-29T01:03:06.340Z,60.83
2022-07-29T01:04:08.219Z,60.53
2022-07-29T01:05:12.150Z,60.79
2022-07-29T01:06:14.249Z,60.04
2022-07-29T01:07:17.564Z,60.30
2022-07-29T01:08:21.337Z,60.26
2022-07-29T01:09:43.106Z,60.25
2022-07-29T01:10:47.238Z,60.42
2022-07-29T01:11:49.574Z,60.00
2022-07-29T01:12:53.553Z,60.11
2022-07-29T01:13:55.549Z,60.07
2022-07-29T01:14:57.643Z,60.24
2022-07-29T01:16:07.833Z,59.96
2022-07-29T01:17:19.065Z,59.83
2022-07-29T01:18:33.016Z,59.37
2022-07-29T01:19:59.228Z,59.67
2022-07-29T01:21:10.128Z,59.35
2022-07-29T01:22:17.677Z,59.62
2022-07-29T01:23:37.603Z,59.14
2022-07-29T01:24:51.040Z,57.99
2022-07-29T01:25:58.495Z,58.71
2022-07-29T01:27:33.755Z,58.94
2022-07-29T01:28:41.613Z,58.61
2022-07-29T01:29:50.141Z,59.06
2022-07-29T01:30:53.644Z,58.93
2022-07-29T01:32:00.845Z,59.37
2022-07-29T01:33:11.570Z,58.69
2022-07-29T01:34:21.861Z,58.84
2022-07-29T01:35:34.309Z,58.33
2022-07-29T01:36:48.188Z,58.80
2022-07-29T01:38:05.578Z,58.70
2022-07-29T01:39:38.538Z,58.61
2022-07-29T01:40:43.115Z,58.54
2022-07-29T01:41:58.302Z,58.84
2022-07-29T01:43:06.582Z,58.61
2022-07-29T01:44:21.307Z,58.80
2022-07-29T01:45:44.403Z,58.92
2022-07-29T01:46:53.626Z,58.16
2022-07-29T01:48:01.485Z,58.91
2022-07-29T01:49:11.345Z,58.78
2022-07-29T01:50:17.878Z,59.14
2022-07-29T01:51:32.681Z,58.51
2022-07-29T01:52:53.924Z,58.18
2022-07-29T01:54:03.958Z,58.13
2022-07-29T01:55:16.201Z,58.39
2022-07-29T01:56:21.007Z,57.64
2022-07-29T01:57:29.120Z,57.67
2022-07-29T01:58:33.123Z,57.61
2022-07-29T01:59:37.280Z,57.22
2022-07-29T02:00:43.698Z,57.35
2022-07-29T02:01:48.064Z,57.35
2022-07-29T02:02:51.163Z,57.34
2022-07-29T02:03:55.437Z,56.50
2022-07-29T02:05:00.244Z,56.67
2022-07-29T02:06:04.390Z,56.50
2022-07-29T02:07:09.526Z,56.56
2022-07-29T02:08:13.037Z,56.39
2022-07-29T02:09:16.916Z,56.55
2022-07-29T02:10:25.876Z,56.69
2022-07-29T02:11:28.414Z,57.24
2022-07-29T02:12:32.117Z,56.96
2022-07-29T02:13:36.998Z,56.55
2022-07-29T02:14:44.872Z,57.20
2022-07-29T02:15:47.468Z,56.56
2022-07-29T02:16:53.089Z,56.98
2022-07-29T02:18:02.181Z,56.78
2022-07-29T02:19:05.281Z,56.68
2022-07-29T02:20:09.077Z,55.87
2022-07-29T02:21:15.007Z,56.66
2022-07-29T02:22:19.609Z,56.59
2022-07-29T02:23:23.891Z,55.86
2022-07-29T02:24:27.037Z,56.08
2022-07-29T02:25:36.749Z,56.14
2022-07-29T02:26:43.365Z,56.75
2022-07-29T02:27:46.584Z,57.08
2022-07-29T02:28:51.226Z,57.05
2022-07-29T02:29:54.567Z,56.81
2022-07-29T02:31:00.651Z,57.27
2022-07-29T02:32:04.846Z,56.64
2022-07-29T02:33:07.680Z,56.55
2022-07-29T02:34:11.868Z,56.76
2022-07-29T02:35:16.126Z,57.32
2022-07-29T02:36:18.823Z,57.39
2022-07-29T02:37:21.517Z,57.09
2022-07-29T02:38:43.849Z,57.29
2022-07-29T02:39:48.056Z,57.37
2022-07-29T02:40:51.792Z,57.00
2022-07-29T02:42:00.145Z,57.09
2022-07-29T02:43:05.602Z,57.20
2022-07-29T02:44:17.583Z,57.78
2022-07-29T02:45:19.637Z,57.64
2022-07-29T02:46:30.403Z,57.18
2022-07-29T02:47:43.747Z,56.97
2022-07-29T02:48:52.970Z,57.26
2022-07-29T02:50:09.936Z,57.41
2022-07-29T02:51:44.251Z,57.76
2022-07-29T02:52:51.707Z,57.74
2022-07-29T02:53:58.136Z,57.88
2022-07-29T02:55:06.517Z,57.56
2022-07-29T02:56:14.153Z,57.97
2022-07-29T02:57:23.174Z,58.38
2022-07-29T02:58:35.515Z,58.53
2022-07-29T02:59:39.368Z,58.29
2022-07-29T03:00:42.030Z,58.06
2022-07-29T03:01:45.342Z,57.82
2022-07-29T03:02:53.402Z,58.26
2022-07-29T03:03:56.205Z,58.22
2022-07-29T03:04:59.202Z,58.10
2022-07-29T03:06:04.328Z,58.03
2022-07-29T03:07:06.571Z,58.28
2022-07-29T03:08:10.890Z,58.29
2022-07-29T03:09:14.408Z,58.00
2022-07-29T03:10:16.666Z,58.16
2022-07-29T03:11:19.342Z,58.58
2022-07-29T03:12:21.872Z,58.58
2022-07-29T03:13:24.727Z,58.68
2022-07-29T03:14:27.605Z,59.01
2022-07-29T03:15:30.373Z,59.38
2022-07-29T03:16:34.300Z,59.12
2022-07-29T03:17:38.922Z,59.04
2022-07-29T03:18:40.890Z,59.30
2022-07-29T03:19:43.373Z,59.51
2022-07-29T03:20:45.208Z,59.35
2022-07-29T03:21:47.277Z,59.82
2022-07-29T03:22:49.285Z,59.37
2022-07-29T03:23:51.002Z,59.08
2022-07-29T03:24:52.721Z,59.25
2022-07-29T03:25:55.341Z,59.18
2022-07-29T03:26:59.466Z,59.49
2022-07-29T03:28:02.738Z,58.27
2022-07-29T03:29:04.446Z,57.96
2022-07-29T03:30:08.316Z,58.09
2022-07-29T03:31:13.113Z,57.86
2022-07-29T03:32:14.874Z,57.72
2022-07-29T03:33:25.660Z,58.08
2022-07-29T03:34:27.382Z,58.09
2022-07-29T03:35:29.453Z,57.60
2022-07-29T03:36:31.188Z,57.64
2022-07-29T03:37:34.504Z,57.75
2022-07-29T03:38:37.929Z,57.28
2022-07-29T03:39:42.522Z,57.42
2022-07-29T03:40:50.855Z,57.71
2022-07-29T03:41:56.235Z,57.88
2022-07-29T03:43:00.312Z,57.70
2022-07-29T03:44:03.174Z,57.99
2022-07-29T03:45:08.980Z,58.09
2022-07-29T03:46:12.515Z,57.64
2022-07-29T03:47:16.138Z,58.11
2022-07-29T03:48:21.970Z,58.20
2022-07-29T03:49:25.032Z,58.62
2022-07-29T03:50:27.090Z,57.69
2022-07-29T03:51:33.978Z,56.05
2022-07-29T03:52:36.804Z,56.03
2022-07-29T03:53:39.072Z,56.61
2022-07-29T03:54:41.526Z,55.78
2022-07-29T03:55:52.191Z,55.55
2022-07-29T03:56:55.308Z,55.54
2022-07-29T03:57:58.333Z,56.83
2022-07-29T03:59:02.568Z,56.00
2022-07-29T04:00:06.458Z,55.09
2022-07-29T04:01:08.552Z,54.44
2022-07-29T04:02:12.573Z,55.88
2022-07-29T04:03:15.321Z,56.69
2022-07-29T04:04:18.110Z,55.47
2022-07-29T04:05:20.564Z,55.25
2022-07-29T04:06:22.354Z,54.98
2022-07-29T04:07:24.079Z,54.77
2022-07-29T04:08:25.771Z,53.85
2022-07-29T04:09:27.568Z,54.41
2022-07-29T04:10:31.658Z,53.43
2022-07-29T04:11:34.275Z,54.24
2022-07-29T04:12:56.010Z,55.33
2022-07-29T04:13:57.709Z,52.66
2022-07-29T04:14:59.395Z,53.75
2022-07-29T04:16:01.345Z,54.01
2022-07-29T04:17:04.810Z,53.20
2022-07-29T04:18:07.134Z,53.07
2022-07-29T04:19:08.852Z,53.89
2022-07-29T04:20:14.226Z,53.77
2022-07-29T04:21:15.966Z,53.42
2022-07-29T04:22:17.706Z,52.32
2022-07-29T04:23:19.593Z,52.81
2022-07-29T04:24:21.459Z,52.34
2022-07-29T04:25:23.299Z,52.56
2022-07-29T04:26:25.012Z,51.67
2022-07-29T04:27:26.967Z,52.22
2022-07-29T04:28:28.758Z,51.82
2022-07-29T04:29:30.525Z,51.01
2022-07-29T04:30:33.596Z,51.02
2022-07-29T04:31:35.407Z,50.92
2022-07-29T04:32:37.185Z,49.53
2022-07-29T04:33:39.051Z,50.10
2022-07-29T04:34:40.793Z,49.80
2022-07-29T04:35:50.058Z,48.75
2022-07-29T04:36:52.426Z,48.44
2022-07-29T04:37:54.242Z,48.84
2022-07-29T04:38:55.987Z,48.49
2022-07-29T04:39:57.690Z,48.10
2022-07-29T04:40:59.434Z,46.75
2022-07-29T04:42:01.140Z,47.24
2022-07-29T04:43:05.689Z,47.66
2022-07-29T04:44:08.821Z,47.58
2022-07-29T04:45:10.693Z,47.50
2022-07-29T04:46:12.573Z,45.97
2022-07-29T04:47:14.314Z,45.33
2022-07-29T04:48:16.010Z,44.65
2022-07-29T04:49:17.770Z,44.87
2022-07-29T04:50:19.593Z,45.99
2022-07-29T04:51:21.276Z,44.11
2022-07-29T04:52:23.730Z,44.37
2022-07-29T04:53:25.715Z,43.51
2022-07-29T04:54:27.406Z,42.42
2022-07-29T04:55:29.293Z,41.90
2022-07-29T04:56:31.071Z,41.50
2022-07-29T04:57:33.152Z,42.40
2022-07-29T04:58:37.830Z,42.62
2022-07-29T04:59:39.514Z,41.59
2022-07-29T05:00:41.590Z,41.57
2022-07-29T05:01:43.501Z,41.03
2022-07-29T05:02:45.409Z,40.33
2022-07-29T05:03:47.256Z,40.12
2022-07-29T05:04:49.466Z,41.59
2022-07-29T05:05:51.189Z,39.27
2022-07-29T05:06:52.904Z,40.57
2022-07-29T05:07:54.680Z,39.35
2022-07-29T05:08:56.509Z,40.44
2022-07-29T05:09:58.206Z,39.32
2022-07-29T05:11:11.240Z,40.27
2022-07-29T05:12:13.593Z,39.72
2022-07-29T05:13:15.304Z,39.81
2022-07-29T05:14:17.444Z,39.56
2022-07-29T05:15:19.477Z,39.83
2022-07-29T05:16:21.251Z,39.88
2022-07-29T05:17:23.103Z,40.09
2022-07-29T05:18:26.251Z,40.48
2022-07-29T05:19:28.144Z,40.23
2022-07-29T05:20:30.642Z,39.42
2022-07-29T05:21:32.402Z,39.23
2022-07-29T05:22:34.159Z,38.18
2022-07-29T05:23:36.038Z,36.91
2022-07-29T05:24:38.407Z,37.03
2022-07-29T05:25:43.433Z,38.41
2022-07-29T05:26:46.620Z,38.01
2022-07-29T05:27:48.738Z,37.97
2022-07-29T05:28:52.967Z,38.45
2022-07-29T05:29:54.757Z,38.47
2022-07-29T05:30:57.410Z,37.97
2022-07-29T05:31:59.556Z,38.27
2022-07-29T05:33:02.125Z,36.93
2022-07-29T05:34:03.877Z,37.05
2022-07-29T05:35:06.065Z,36.63
2022-07-29T05:36:08.654Z,35.87
2022-07-29T05:37:10.440Z,36.01
2022-07-29T05:38:12.238Z,36.87
2022-07-29T05:39:14.243Z,36.90
2022-07-29T05:40:15.940Z,36.55
2022-07-29T05:41:17.680Z,35.74
2022-07-29T05:42:19.409Z,36.45
2022-07-29T05:43:22.073Z,36.57
2022-07-29T05:44:25.427Z,35.98
2022-07-29T05:45:27.379Z,36.92
2022-07-29T05:46:29.397Z,37.28
2022-07-29T05:47:31.576Z,36.28
2022-07-29T05:48:33.489Z,36.42
2022-07-29T05:49:35.289Z,36.06
2022-07-29T05:50:37.050Z,35.13
2022-07-29T05:51:46.086Z,34.02
2022-07-29T05:52:47.820Z,35.21
2022-07-29T05:53:51.631Z,35.18
2022-07-29T05:54:53.427Z,36.10
2022-07-29T05:55:55.791Z,35.88
2022-07-29T05:56:57.545Z,36.41
2022-07-29T05:57:59.256Z,36.49
2022-07-29T05:59:00.970Z,35.52
2022-07-29T06:00:03.167Z,35.82
2022-07-29T06:01:04.965Z,36.77
2022-07-29T06:02:06.739Z,34.65
2022-07-29T06:03:08.655Z,35.41
2022-07-29T06:04:10.448Z,35.45
2022-07-29T06:05:17.041Z,35.37
2022-07-29T06:06:19.102Z,36.26
2022-07-29T06:07:21.135Z,34.82
2022-07-29T06:08:22.869Z,33.53
2022-07-29T06:09:24.717Z,33.36
2022-07-29T06:10:26.989Z,33.22
2022-07-29T06:11:29.368Z,33.80
2022-07-29T06:12:31.074Z,34.36
2022-07-29T06:13:32.940Z,34.19
2022-07-29T06:14:34.743Z,35.12
2022-07-29T06:15:36.596Z,34.83
2022-07-29T06:16:38.372Z,34.31
2022-07-29T06:17:40.095Z,35.05
2022-07-29T06:19:01.790Z,34.19
2022-07-29T06:20:04.416Z,34.46
2022-07-29T06:21:10.845Z,32.73
2022-07-29T06:22:12.545Z,33.62
2022-07-29T06:23:14.278Z,34.17
2022-07-29T06:24:16.942Z,33.59
2022-07-29T06:25:19.305Z,32.93
2022-07-29T06:26:30.399Z,33.93
2022-07-29T06:27:33.267Z,31.75
2022-07-29T06:28:37.517Z,32.65
2022-07-29T06:29:39.526Z,32.58
2022-07-29T06:30:41.536Z,32.81
2022-07-29T06:31:43.326Z,31.79
2022-07-29T06:32:45.054Z,32.65
2022-07-29T06:33:46.750Z,33.02
2022-07-29T06:34:49.044Z,31.71
2022-07-29T06:35:53.106Z,33.05
2022-07-29T06:36:55.560Z,31.62
2022-07-29T06:37:59.715Z,31.77
2022-07-29T06:39:02.851Z,31.45
2022-07-29T06:40:24.747Z,31.69
2022-07-29T06:41:27.150Z,29.67
2022-07-29T06:42:28.848Z,30.86
2022-07-29T06:43:52.236Z,30.51
2022-07-29T06:44:56.441Z,29.96
2022-07-29T06:46:03.107Z,29.66
2022-07-29T06:47:04.843Z,29.82
2022-07-29T06:48:06.777Z,29.40
2022-07-29T06:49:08.833Z,29.15
2022-07-29T06:50:13.447Z,29.57
2022-07-29T06:51:15.643Z,30.04
2022-07-29T06:52:18.033Z,30.21
2022-07-29T06:53:19.725Z,29.25
2022-07-29T06:54:22.867Z,29.14
2022-07-29T06:55:24.948Z,28.16
2022-07-29T06:56:27.457Z,30.63
2022-07-29T06:57:29.173Z,29.33
2022-07-29T06:58:31.429Z,28.35
2022-07-29T06:59:35.730Z,28.89
2022-07-29T07:00:38.362Z,28.56
2022-07-29T07:01:42.465Z,28.13
2022-07-29T07:02:44.276Z,28.94
2022-07-29T07:03:46.085Z,29.66
2022-07-29T07:04:50.681Z,29.84
2022-07-29T07:05:54.798Z,28.30
2022-07-29T07:06:56.961Z,28.13
2022-07-29T07:07:58.780Z,28.10
2022-07-29T07:09:00.699Z,28.65
2022-07-29T07:10:02.436Z,28.07
2022-07-29T07:11:05.143Z,27.92
2022-07-29T07:12:07.187Z,28.90
2022-07-29T07:13:08.966Z,29.01
2022-07-29T07:14:10.678Z,27.92
2022-07-29T07:15:12.379Z,28.51
2022-07-29T07:16:14.211Z,26.66
2022-07-29T07:17:16.001Z,27.09
2022-07-29T07:18:18.062Z,26.33
2022-07-29T07:19:20.338Z,26.61
2022-07-29T07:20:22.825Z,27.46
2022-07-29T07:21:30.183Z,27.67
2022-07-29T07:22:38.425Z,28.75
2022-07-29T07:23:40.590Z,27.81
2022-07-29T07:24:42.299Z,28.10
2022-07-29T07:25:44.444Z,28.46
2022-07-29T07:26:46.297Z,25.95
2022-07-29T07:27:48.101Z,27.69
2022-07-29T07:28:49.791Z,27.76
2022-07-29T07:29:51.474Z,26.79
2022-07-29T07:30:53.243Z,26.84
2022-07-29T07:32:00.645Z,27.79
2022-07-29T07:33:03.543Z,27.37
2022-07-29T07:34:05.703Z,27.93
2022-07-29T07:35:09.515Z,27.14
2022-07-29T07:36:11.311Z,26.85
2022-07-29T07:37:13.107Z,27.50
2022-07-29T07:38:14.943Z,27.68
2022-07-29T07:39:16.666Z,27.68
2022-07-29T07:40:18.655Z,28.11
2022-07-29T07:41:21.103Z,28.93
2022-07-29T07:42:22.903Z,28.78
2022-07-29T07:43:24.605Z,29.57
2022-07-29T07:44:26.637Z,29.09
2022-07-29T07:45:29.081Z,29.04
2022-07-29T07:46:30.823Z,28.51
2022-07-29T07:47:33.011Z,28.92
2022-07-29T07:48:36.015Z,29.65
2022-07-29T07:49:37.708Z,30.35
2022-07-29T07:50:39.578Z,30.89
2022-07-29T07:51:41.499Z,28.92
2022-07-29T07:52:54.799Z,28.07
2022-07-29T07:53:56.485Z,26.85
2022-07-29T07:54:59.626Z,26.38
2022-07-29T07:56:16.989Z,27.71
2022-07-29T07:57:18.798Z,27.81
2022-07-29T07:58:20.579Z,27.20
2022-07-29T07:59:22.295Z,27.54
2022-07-29T08:00:24.375Z,28.33
2022-07-29T08:01:26.116Z,26.65
2022-07-29T08:02:28.070Z,26.55
2022-07-29T08:03:29.915Z,27.30
2022-07-29T08:04:31.651Z,26.05
2022-07-29T08:05:33.552Z,25.35
2022-07-29T08:06:37.064Z,26.18
2022-07-29T08:07:38.779Z,26.90
2022-07-29T08:08:40.530Z,28.11
2022-07-29T08:09:42.265Z,27.09
2022-07-29T08:11:02.174Z,26.67
2022-07-29T08:12:07.442Z,27.06
2022-07-29T08:13:10.350Z,26.06
2022-07-29T08:14:12.135Z,25.82
2022-07-29T08:15:15.519Z,27.99
2022-07-29T08:16:17.313Z,23.99
2022-07-29T08:17:19.143Z,24.18
2022-07-29T08:18:20.841Z,25.35
2022-07-29T08:19:22.560Z,25.50
2022-07-29T08:20:26.123Z,28.94
2022-07-29T08:21:27.867Z,26.01
2022-07-29T08:22:29.594Z,27.00
2022-07-29T08:23:46.144Z,27.22
2022-07-29T08:24:54.839Z,26.42
2022-07-29T08:25:57.457Z,25.41
2022-07-29T08:26:59.384Z,26.39
2022-07-29T08:28:01.073Z,27.19
2022-07-29T08:29:02.789Z,26.40
2022-07-29T08:30:04.980Z,27.56
2022-07-29T08:31:07.123Z,28.48
2022-07-29T08:32:08.870Z,26.47
2022-07-29T08:33:10.681Z,28.31
2022-07-29T08:34:13.110Z,28.40
2022-07-29T08:35:14.837Z,28.23
2022-07-29T08:36:16.545Z,28.11
2022-07-29T08:37:18.272Z,27.33
2022-07-29T08:38:19.981Z,28.36
2022-07-29T08:39:21.751Z,31.31
2022-07-29T08:40:31.988Z,28.12
2022-07-29T08:41:34.611Z,28.25
2022-07-29T08:42:37.000Z,27.19
2022-07-29T08:43:42.034Z,26.54
2022-07-29T08:44:43.905Z,26.21
2022-07-29T08:45:48.740Z,29.33
2022-07-29T08:46:51.277Z,27.81
2022-07-29T08:47:53.689Z,24.77
2022-07-29T08:48:56.632Z,26.08
2022-07-29T08:49:58.600Z,26.67
2022-07-29T08:51:01.630Z,25.80
2022-07-29T08:52:04.322Z,27.66
2022-07-29T08:53:08.741Z,27.41
2022-07-29T08:54:11.413Z,27.85
2022-07-29T08:55:16.507Z,26.31
2022-07-29T08:56:23.489Z,27.35
2022-07-29T08:57:26.317Z,27.08
2022-07-29T08:58:33.229Z,26.96
2022-07-29T08:59:41.348Z,25.91
2022-07-29T09:00:52.218Z,24.20
2022-07-29T09:01:55.635Z,24.36
2022-07-29T09:03:00.461Z,22.70
2022-07-29T09:04:05.586Z,25.49
2022-07-29T09:05:07.945Z,23.20
2022-07-29T09:06:13.985Z,23.02
2022-07-29T09:07:17.521Z,22.30
2022-07-29T09:08:19.613Z,22.09
2022-07-29T09:09:21.395Z,23.08
2022-07-29T09:10:23.521Z,21.44
2022-07-29T09:11:25.690Z,21.50
2022-07-29T09:12:29.289Z,21.98
2022-07-29T09:13:32.194Z,21.39
2022-07-29T09:14:33.898Z,21.29
2022-07-29T09:15:35.789Z,20.44
2022-07-29T09:16:55.392Z,20.16
2022-07-29T09:17:59.506Z,22.73
2022-07-29T09:19:01.197Z,22.96
2022-07-29T09:20:14.483Z,21.72
2022-07-29T09:21:36.700Z,21.69
2022-07-29T09:22:42.195Z,23.19
2022-07-29T09:24:11.942Z,22.71
2022-07-29T09:25:13.925Z,20.92
2022-07-29T09:26:15.618Z,21.12
2022-07-29T09:27:27.159Z,20.75
2022-07-29T09:28:28.832Z,20.30
2022-07-29T09:29:35.756Z,19.88
2022-07-29T09:30:55.062Z,22.19
2022-07-29T09:31:56.880Z,20.72
2022-07-29T09:33:02.317Z,21.10
2022-07-29T09:34:05.396Z,23.84
2022-07-29T09:35:17.371Z,21.16
2022-07-29T09:36:19.111Z,21.29
2022-07-29T09:37:29.632Z,21.25
2022-07-29T09:38:32.197Z,23.01
2022-07-29T09:39:47.333Z,21.48
2022-07-29T09:41:04.608Z,21.00
2022-07-29T09:42:07.970Z,20.21
2022-07-29T09:43:14.430Z,20.40
2022-07-29T09:44:17.254Z,20.93
2022-07-29T09:45:33.286Z,21.36
2022-07-29T09:46:35.709Z,21.45
2022-07-29T09:47:50.345Z,21.11
2022-07-29T09:49:12.114Z,19.16
2022-07-29T09:50:14.293Z,19.17
2022-07-29T09:51:28.323Z,19.57
2022-07-29T09:52:47.845Z,19.54
2022-07-29T09:53:49.575Z,19.69
2022-07-29T09:54:51.452Z,20.11
2022-07-29T09:55:53.517Z,20.85
2022-07-29T09:56:56.542Z,22.25
2022-07-29T09:58:18.914Z,20.34
2022-07-29T09:59:23.392Z,19.73
2022-07-29T10:00:26.491Z,20.16
2022-07-29T10:01:29.915Z,20.29
2022-07-29T10:02:32.965Z,20.75
2022-07-29T10:03:52.206Z,21.48
2022-07-29T10:04:54.042Z,20.74
2022-07-29T10:06:14.564Z,20.77
2022-07-29T10:07:16.331Z,20.66
2022-07-29T10:08:26.879Z,21.93
2022-07-29T10:09:28.802Z,19.25
2022-07-29T10:10:34.891Z,22.08
2022-07-29T10:11:48.929Z,20.68
2022-07-29T10:13:07.098Z,20.62
2022-07-29T10:14:09.833Z,21.06
2022-07-29T10:15:11.610Z,19.41
2022-07-29T10:16:15.154Z,19.61
2022-07-29T10:17:18.066Z,19.17
2022-07-29T10:18:21.081Z,20.23
2022-07-29T10:19:23.330Z,19.63
2022-07-29T10:20:26.312Z,19.57
2022-07-29T10:21:36.016Z,18.80
2022-07-29T10:22:54.247Z,20.26
2022-07-29T10:24:01.090Z,18.41
2022-07-29T10:25:03.581Z,18.51
2022-07-29T10:26:05.601Z,18.62
2022-07-29T10:27:09.278Z,18.40
2022-07-29T10:28:15.788Z,19.21
2022-07-29T10:29:18.157Z,18.72
2022-07-29T10:30:21.502Z,19.27
2022-07-29T10:31:30.811Z,17.98
2022-07-29T10:32:54.054Z,18.87
2022-07-29T10:34:08.247Z,20.85
2022-07-29T10:35:34.294Z,18.13
2022-07-29T10:37:08.581Z,18.02
2022-07-29T10:38:30.505Z,19.12
2022-07-29T10:39:44.328Z,19.29
2022-07-29T10:41:27.811Z,19.18
2022-07-29T10:42:42.317Z,19.73
2022-07-29T10:43:47.776Z,19.35
2022-07-29T10:44:54.494Z,19.78
2022-07-29T10:45:58.729Z,19.44
2022-07-29T10:47:00.660Z,19.04
2022-07-29T10:48:06.107Z,19.72
2022-07-29T10:49:25.114Z,19.63
2022-07-29T10:50:27.203Z,19.32
2022-07-29T10:51:52.528Z,19.14
2022-07-29T10:52:59.661Z,18.82
2022-07-29T10:54:06.001Z,19.60
2022-07-29T10:55:09.181Z,19.18
2022-07-29T10:56:25.398Z,20.49
2022-07-29T10:57:53.072Z,21.34
2022-07-29T10:59:23.012Z,20.90
2022-07-29T11:00:31.177Z,20.80
2022-07-29T11:01:37.357Z,20.21
2022-07-29T11:02:42.669Z,20.03
2022-07-29T11:03:50.679Z,19.08
2022-07-29T11:04:52.894Z,19.81
2022-07-29T11:05:59.796Z,19.64
2022-07-29T11:07:03.904Z,19.41
2022-07-29T11:08:19.641Z,20.87
2022-07-29T11:09:34.849Z,20.87
2022-07-29T11:10:40.265Z,20.85
2022-07-29T11:11:43.810Z,20.05
2022-07-29T11:12:50.157Z,20.69
2022-07-29T11:13:54.290Z,18.77
2022-07-29T11:15:01.597Z,21.42
2022-07-29T11:16:04.103Z,19.56
2022-07-29T11:17:09.104Z,20.92
2022-07-29T11:18:15.234Z,20.77
2022-07-29T11:19:29.780Z,20.62
2022-07-29T11:20:45.781Z,21.83
2022-07-29T11:22:05.553Z,21.02
2022-07-29T11:23:33.321Z,19.54
2022-07-29T11:24:36.999Z,20.37
2022-07-29T11:25:50.123Z,19.06
2022-07-29T11:27:18.238Z,20.05
2022-07-29T11:28:25.449Z,20.22
2022-07-29T11:29:27.549Z,20.49
2022-07-29T11:30:52.242Z,20.05
2022-07-29T11:32:10.418Z,19.88
2022-07-29T11:33:54.394Z,21.07
2022-07-29T11:35:37.200Z,19.62
2022-07-29T11:37:15.830Z,20.21
2022-07-29T11:38:31.948Z,19.68
2022-07-29T11:39:39.867Z,20.63
2022-07-29T11:40:42.541Z,20.67
2022-07-29T11:41:44.392Z,19.62
2022-07-29T11:42:47.489Z,19.42
2022-07-29T11:43:55.204Z,21.46
2022-07-29T11:45:42.497Z,18.66
2022-07-29T11:46:54.034Z,18.74
2022-07-29T11:49:32.207Z,21.75
2022-07-29T11:50:37.514Z,21.70
2022-07-29T11:51:52.572Z,20.56
2022-07-29T11:52:54.933Z,20.38
2022-07-29T11:54:04.118Z,19.29
2022-07-29T11:55:09.878Z,21.28
2022-07-29T11:56:17.048Z,20.86
2022-07-29T11:57:21.183Z,20.69
2022-07-29T11:58:25.169Z,21.60
2022-07-29T12:00:55.515Z,21.43
2022-07-29T12:02:18.354Z,22.29
2022-07-29T12:03:35.349Z,21.13
2022-07-29T12:04:55.394Z,23.30
2022-07-29T12:05:57.543Z,21.60
2022-07-29T12:07:00.534Z,21.60
2022-07-29T12:07:03.208Z,21.83
2022-07-29T12:07:03.823Z,19.26
2022-07-29T12:08:14.906Z,21.42
2022-07-29T12:09:16.926Z,22.37
2022-07-29T12:10:19.795Z,21.63
2022-07-29T12:11:31.476Z,21.89
2022-07-29T12:12:33.938Z,22.51
2022-07-29T12:13:40.826Z,21.17
2022-07-29T12:14:46.680Z,21.98
2022-07-29T12:15:56.427Z,21.59
2022-07-29T12:17:02.025Z,21.96
2022-07-29T12:18:24.000Z,21.21
2022-07-29T12:19:27.270Z,21.86
2022-07-29T12:20:30.597Z,20.36
2022-07-29T12:21:56.502Z,21.08
2022-07-29T12:23:07.234Z,22.05
2022-07-29T12:24:09.684Z,21.67
2022-07-29T12:26:35.032Z,23.71
2022-07-29T12:27:40.563Z,21.37
2022-07-29T12:28:42.434Z,21.91
2022-07-29T12:30:02.241Z,21.88
2022-07-29T12:31:05.652Z,22.46
2022-07-29T12:32:15.075Z,21.86
2022-07-29T12:33:29.793Z,21.73
2022-07-29T12:34:32.114Z,22.23
2022-07-29T12:35:33.992Z,21.79
2022-07-29T12:36:36.127Z,21.85
2022-07-29T12:37:40.896Z,21.24
2022-07-29T12:38:44.577Z,21.58
2022-07-29T12:39:46.550Z,22.62
2022-07-29T12:40:49.445Z,21.19
2022-07-29T12:41:51.148Z,22.28
2022-07-29T12:43:10.494Z,23.09
2022-07-29T12:44:12.657Z,23.61
2022-07-29T12:45:14.422Z,22.84
2022-07-29T12:46:16.371Z,22.91
2022-07-29T12:47:20.333Z,22.66
2022-07-29T12:48:42.517Z,23.07
2022-07-29T12:49:44.301Z,22.29
2022-07-29T12:51:07.079Z,22.39
2022-07-29T12:52:29.349Z,22.87
2022-07-29T12:53:31.916Z,22.10
2022-07-29T12:54:33.773Z,24.33
2022-07-29T12:55:44.625Z,24.47
2022-07-29T12:56:46.717Z,24.91
2022-07-29T12:57:53.401Z,23.74
2022-07-29T12:58:55.226Z,24.07
2022-07-29T13:00:09.163Z,22.80
2022-07-29T13:01:17.153Z,25.02
2022-07-29T13:02:23.625Z,24.87
2022-07-29T13:03:25.402Z,25.14
2022-07-29T13:04:33.623Z,24.63
2022-07-29T13:05:49.447Z,23.85
2022-07-29T13:07:04.657Z,23.93
2022-07-29T13:08:29.640Z,24.75
2022-07-29T13:09:46.686Z,24.79
2022-07-29T13:10:48.425Z,24.23
2022-07-29T13:11:52.912Z,24.16
2022-07-29T13:13:04.723Z,23.75
2022-07-29T13:14:09.705Z,24.15
2022-07-29T13:15:18.455Z,23.39
2022-07-29T13:16:20.183Z,23.57
2022-07-29T13:17:24.247Z,23.72
2022-07-29T13:18:29.903Z,23.90
2022-07-29T13:19:52.916Z,25.28
2022-07-29T13:20:55.090Z,24.63
2022-07-29T13:21:57.020Z,24.33
2022-07-29T13:23:00.997Z,24.50
2022-07-29T13:24:02.817Z,24.55
2022-07-29T13:25:05.017Z,23.59
2022-07-29T13:26:11.141Z,24.61
2022-07-29T13:27:12.849Z,24.88
2022-07-29T13:28:14.557Z,25.06
2022-07-29T13:29:16.244Z,24.09
2022-07-29T13:30:17.986Z,23.54
2022-07-29T13:31:19.729Z,23.71
2022-07-29T13:32:27.910Z,23.99
2022-07-29T13:33:31.336Z,23.66
2022-07-29T13:34:33.042Z,25.40
2022-07-29T13:35:34.984Z,25.14
2022-07-29T13:36:41.891Z,24.37
2022-07-29T13:37:43.696Z,25.72
2022-07-29T13:38:45.505Z,24.34
2022-07-29T13:39:52.919Z,24.88
2022-07-29T13:40:55.024Z,24.44
2022-07-29T13:41:57.191Z,24.34
2022-07-29T13:42:59.329Z,25.18
2022-07-29T13:44:01.019Z,25.80
2022-07-29T13:45:04.222Z,24.82
2022-07-29T13:46:06.028Z,24.43
2022-07-29T13:47:08.886Z,24.50
2022-07-29T13:48:10.702Z,25.76
2022-07-29T13:49:12.508Z,25.82
2022-07-29T13:50:14.517Z,25.10
2022-07-29T13:51:16.292Z,24.37
2022-07-29T13:52:18.284Z,26.08
2022-07-29T13:53:20.035Z,25.01
2022-07-29T13:54:28.789Z,24.82
2022-07-29T13:55:30.611Z,24.16
2022-07-29T13:56:32.410Z,23.91
2022-07-29T13:57:34.131Z,24.35
2022-07-29T13:58:36.457Z,25.13
2022-07-29T13:59:38.755Z,24.89
2022-07-29T14:00:40.489Z,25.19
2022-07-29T14:01:43.267Z,24.66
2022-07-29T14:02:45.749Z,24.53
2022-07-29T14:03:47.624Z,25.05
2022-07-29T14:04:49.391Z,24.92
2022-07-29T14:05:51.377Z,25.57
2022-07-29T14:06:53.169Z,26.15